sensor_id;sensor_type;location;lat;lon;timestamp;P1;durP1;ratioP1;P2;durP2;ratioP2
65753;SDS011;52488;47.502;18.940;2023-01-10T00:00:08;5.95;;;4.32;;
65753;SDS011;52488;47.502;18.940;2023-01-10T00:01:12;4.78;;;3.92;;
65753;SDS011;52488;47.502;18.940;2023-01-10T00:02:15;6.57;;;4.50;;
65753;SDS011;52488;47.502;18.940;2023-01-10T00:03:19;5.97;;;4.20;;
65753;SDS011;52488;47.502;18.940;2023-01-10T00:04:23;6.28;;;4.22;;
65753;SDS011;52488;47.502;18.940;2023-01-10T00:05:28;5.62;;;4.20;;
65753;SDS011;52488;47.502;18.940;2023-01-10T00:06:31;6.10;;;4.43;;
65753;SDS011;52488;47.502;18.940;2023-01-10T00:07:34;4.90;;;3.70;;
65753;SDS011;52488;47.502;18.940;2023-01-10T00:08:38;6.65;;;4.37;;
65753;SDS011;52488;47.502;18.940;2023-01-10T00:09:41;6.65;;;4.45;;
65753;SDS011;52488;47.502;18.940;2023-01-10T00:10:43;5.95;;;4.37;;
65753;SDS011;52488;47.502;18.940;2023-01-10T00:11:47;6.35;;;3.90;;
65753;SDS011;52488;47.502;18.940;2023-01-10T00:13:14;6.80;;;4.40;;
65753;SDS011;52488;47.502;18.940;2023-01-10T00:14:28;4.90;;;4.10;;
65753;SDS011;52488;47.502;18.940;2023-01-10T00:15:31;5.40;;;3.90;;
65753;SDS011;52488;47.502;18.940;2023-01-10T00:16:35;6.65;;;4.07;;
65753;SDS011;52488;47.502;18.940;2023-01-10T00:17:41;5.53;;;4.00;;
65753;SDS011;52488;47.502;18.940;2023-01-10T00:18:44;6.45;;;4.10;;
65753;SDS011;52488;47.502;18.940;2023-01-10T00:19:47;6.35;;;4.10;;
65753;SDS011;52488;47.502;18.940;2023-01-10T00:20:50;5.80;;;4.15;;
65753;SDS011;52488;47.502;18.940;2023-01-10T00:21:53;7.28;;;4.85;;
65753;SDS011;52488;47.502;18.940;2023-01-10T00:22:59;6.03;;;4.80;;
65753;SDS011;52488;47.502;18.940;2023-01-10T00:24:02;5.43;;;4.28;;
65753;SDS011;52488;47.502;18.940;2023-01-10T00:25:32;6.65;;;4.60;;
65753;SDS011;52488;47.502;18.940;2023-01-10T00:26:37;6.57;;;4.50;;
65753;SDS011;52488;47.502;18.940;2023-01-10T00:27:43;5.97;;;4.90;;
65753;SDS011;52488;47.502;18.940;2023-01-10T00:28:47;8.20;;;5.53;;
65753;SDS011;52488;47.502;18.940;2023-01-10T00:29:50;9.15;;;5.32;;
65753;SDS011;52488;47.502;18.940;2023-01-10T00:30:56;6.53;;;4.87;;
65753;SDS011;52488;47.502;18.940;2023-01-10T00:32:08;7.40;;;4.87;;
65753;SDS011;52488;47.502;18.940;2023-01-10T00:33:11;7.10;;;4.97;;
65753;SDS011;52488;47.502;18.940;2023-01-10T00:34:20;8.38;;;5.07;;
65753;SDS011;52488;47.502;18.940;2023-01-10T00:35:24;6.18;;;4.25;;
65753;SDS011;52488;47.502;18.940;2023-01-10T00:36:27;8.73;;;5.07;;
65753;SDS011;52488;47.502;18.940;2023-01-10T00:37:31;6.35;;;4.70;;
65753;SDS011;52488;47.502;18.940;2023-01-10T00:38:34;6.50;;;4.70;;
65753;SDS011;52488;47.502;18.940;2023-01-10T00:39:39;6.43;;;4.65;;
65753;SDS011;52488;47.502;18.940;2023-01-10T00:40:43;5.78;;;4.60;;
65753;SDS011;52488;47.502;18.940;2023-01-10T00:41:47;6.50;;;4.57;;
65753;SDS011;52488;47.502;18.940;2023-01-10T00:43:09;6.53;;;4.47;;
65753;SDS011;52488;47.502;18.940;2023-01-10T00:44:31;6.40;;;4.60;;
65753;SDS011;52488;47.502;18.940;2023-01-10T00:45:34;5.62;;;4.30;;
65753;SDS011;52488;47.502;18.940;2023-01-10T00:46:37;6.97;;;4.90;;
65753;SDS011;52488;47.502;18.940;2023-01-10T00:47:40;5.62;;;3.97;;
65753;SDS011;52488;47.502;18.940;2023-01-10T00:48:43;6.30;;;4.57;;
65753;SDS011;52488;47.502;18.940;2023-01-10T00:49:46;6.30;;;4.55;;
65753;SDS011;52488;47.502;18.940;2023-01-10T00:50:49;6.32;;;4.55;;
65753;SDS011;52488;47.502;18.940;2023-01-10T00:51:53;5.10;;;3.78;;
65753;SDS011;52488;47.502;18.940;2023-01-10T00:52:59;8.60;;;4.68;;
65753;SDS011;52488;47.502;18.940;2023-01-10T00:54:02;6.35;;;3.95;;
65753;SDS011;52488;47.502;18.940;2023-01-10T00:55:06;5.78;;;3.90;;
65753;SDS011;52488;47.502;18.940;2023-01-10T00:56:09;5.03;;;3.83;;
65753;SDS011;52488;47.502;18.940;2023-01-10T00:57:13;5.87;;;4.10;;
65753;SDS011;52488;47.502;18.940;2023-01-10T00:58:16;5.43;;;4.10;;
65753;SDS011;52488;47.502;18.940;2023-01-10T00:59:23;4.75;;;3.67;;
65753;SDS011;52488;47.502;18.940;2023-01-10T01:00:27;6.68;;;4.53;;
65753;SDS011;52488;47.502;18.940;2023-01-10T01:01:30;5.87;;;4.25;;
65753;SDS011;52488;47.502;18.940;2023-01-10T01:02:35;6.03;;;4.10;;
65753;SDS011;52488;47.502;18.940;2023-01-10T01:03:38;5.07;;;3.97;;
65753;SDS011;52488;47.502;18.940;2023-01-10T01:04:41;5.50;;;3.97;;
65753;SDS011;52488;47.502;18.940;2023-01-10T01:05:45;5.03;;;3.67;;
65753;SDS011;52488;47.502;18.940;2023-01-10T01:06:48;4.90;;;3.85;;
65753;SDS011;52488;47.502;18.940;2023-01-10T01:07:52;6.25;;;4.20;;
65753;SDS011;52488;47.502;18.940;2023-01-10T01:08:55;5.40;;;3.95;;
65753;SDS011;52488;47.502;18.940;2023-01-10T01:09:58;4.40;;;3.47;;
65753;SDS011;52488;47.502;18.940;2023-01-10T01:11:20;5.60;;;3.75;;
65753;SDS011;52488;47.502;18.940;2023-01-10T01:12:22;5.35;;;3.85;;
65753;SDS011;52488;47.502;18.940;2023-01-10T01:13:26;4.72;;;3.70;;
65753;SDS011;52488;47.502;18.940;2023-01-10T01:14:29;4.65;;;3.62;;
65753;SDS011;52488;47.502;18.940;2023-01-10T01:15:32;5.53;;;3.80;;
65753;SDS011;52488;47.502;18.940;2023-01-10T01:16:36;4.72;;;3.50;;
65753;SDS011;52488;47.502;18.940;2023-01-10T01:17:39;5.78;;;3.80;;
65753;SDS011;52488;47.502;18.940;2023-01-10T01:18:42;4.10;;;3.12;;
65753;SDS011;52488;47.502;18.940;2023-01-10T01:19:46;4.93;;;3.50;;
65753;SDS011;52488;47.502;18.940;2023-01-10T01:20:51;4.85;;;3.65;;
65753;SDS011;52488;47.502;18.940;2023-01-10T01:21:57;5.35;;;3.72;;
65753;SDS011;52488;47.502;18.940;2023-01-10T01:23:00;4.35;;;3.28;;
65753;SDS011;52488;47.502;18.940;2023-01-10T01:24:03;4.12;;;3.12;;
65753;SDS011;52488;47.502;18.940;2023-01-10T01:25:07;3.62;;;3.03;;
65753;SDS011;52488;47.502;18.940;2023-01-10T01:26:10;3.03;;;2.45;;
65753;SDS011;52488;47.502;18.940;2023-01-10T01:27:13;2.67;;;2.47;;
65753;SDS011;52488;47.502;18.940;2023-01-10T01:28:16;4.37;;;3.05;;
65753;SDS011;52488;47.502;18.940;2023-01-10T01:29:19;3.33;;;2.50;;
65753;SDS011;52488;47.502;18.940;2023-01-10T01:30:22;3.42;;;2.40;;
65753;SDS011;52488;47.502;18.940;2023-01-10T01:31:25;3.80;;;3.00;;
65753;SDS011;52488;47.502;18.940;2023-01-10T01:32:29;3.08;;;2.45;;
65753;SDS011;52488;47.502;18.940;2023-01-10T01:33:32;3.83;;;2.90;;
65753;SDS011;52488;47.502;18.940;2023-01-10T01:34:35;3.53;;;2.67;;
65753;SDS011;52488;47.502;18.940;2023-01-10T01:35:41;2.87;;;2.62;;
65753;SDS011;52488;47.502;18.940;2023-01-10T01:36:46;2.92;;;2.40;;
65753;SDS011;52488;47.502;18.940;2023-01-10T01:37:49;2.62;;;2.22;;
65753;SDS011;52488;47.502;18.940;2023-01-10T01:38:52;2.62;;;2.22;;
65753;SDS011;52488;47.502;18.940;2023-01-10T01:39:55;2.75;;;2.45;;
65753;SDS011;52488;47.502;18.940;2023-01-10T01:40:59;3.15;;;2.28;;
65753;SDS011;52488;47.502;18.940;2023-01-10T01:42:03;3.45;;;2.60;;
65753;SDS011;52488;47.502;18.940;2023-01-10T01:44:31;3.33;;;2.40;;
65753;SDS011;52488;47.502;18.940;2023-01-10T01:45:38;2.80;;;2.47;;
65753;SDS011;52488;47.502;18.940;2023-01-10T01:46:42;2.95;;;2.30;;
65753;SDS011;52488;47.502;18.940;2023-01-10T01:48:07;4.95;;;2.60;;
65753;SDS011;52488;47.502;18.940;2023-01-10T01:49:18;4.15;;;2.10;;
65753;SDS011;52488;47.502;18.940;2023-01-10T01:50:34;2.45;;;2.25;;
65753;SDS011;52488;47.502;18.940;2023-01-10T01:51:59;2.50;;;2.10;;
65753;SDS011;52488;47.502;18.940;2023-01-10T01:53:18;2.20;;;1.95;;
65753;SDS011;52488;47.502;18.940;2023-01-10T01:54:31;1.98;;;1.50;;
65753;SDS011;52488;47.502;18.940;2023-01-10T01:55:36;1.85;;;1.73;;
65753;SDS011;52488;47.502;18.940;2023-01-10T01:56:45;1.98;;;1.70;;
65753;SDS011;52488;47.502;18.940;2023-01-10T01:57:53;1.80;;;1.70;;
65753;SDS011;52488;47.502;18.940;2023-01-10T01:59:08;1.87;;;1.50;;
65753;SDS011;52488;47.502;18.940;2023-01-10T02:00:23;1.90;;;1.37;;
65753;SDS011;52488;47.502;18.940;2023-01-10T02:01:26;1.80;;;1.55;;
65753;SDS011;52488;47.502;18.940;2023-01-10T02:02:37;2.10;;;1.52;;
65753;SDS011;52488;47.502;18.940;2023-01-10T02:04:12;1.42;;;1.33;;
65753;SDS011;52488;47.502;18.940;2023-01-10T02:05:19;1.42;;;1.33;;
65753;SDS011;52488;47.502;18.940;2023-01-10T02:06:27;4.32;;;1.40;;
65753;SDS011;52488;47.502;18.940;2023-01-10T02:07:35;1.35;;;1.25;;
65753;SDS011;52488;47.502;18.940;2023-01-10T02:08:44;2.62;;;1.30;;
65753;SDS011;52488;47.502;18.940;2023-01-10T02:10:04;2.92;;;1.60;;
65753;SDS011;52488;47.502;18.940;2023-01-10T02:11:13;1.60;;;1.25;;
65753;SDS011;52488;47.502;18.940;2023-01-10T02:12:16;2.80;;;1.70;;
65753;SDS011;52488;47.502;18.940;2023-01-10T02:13:22;1.77;;;1.45;;
65753;SDS011;52488;47.502;18.940;2023-01-10T02:14:27;2.65;;;1.60;;
65753;SDS011;52488;47.502;18.940;2023-01-10T02:15:32;2.15;;;1.40;;
65753;SDS011;52488;47.502;18.940;2023-01-10T02:16:35;1.70;;;1.10;;
65753;SDS011;52488;47.502;18.940;2023-01-10T02:17:38;2.35;;;1.30;;
65753;SDS011;52488;47.502;18.940;2023-01-10T02:18:42;1.30;;;1.20;;
65753;SDS011;52488;47.502;18.940;2023-01-10T02:19:52;1.67;;;1.25;;
65753;SDS011;52488;47.502;18.940;2023-01-10T02:24:57;2.15;;;1.35;;
65753;SDS011;52488;47.502;18.940;2023-01-10T02:29:21;1.67;;;1.20;;
65753;SDS011;52488;47.502;18.940;2023-01-10T02:30:50;2.05;;;1.02;;
65753;SDS011;52488;47.502;18.940;2023-01-10T02:35:09;1.10;;;1.00;;
65753;SDS011;52488;47.502;18.940;2023-01-10T02:39:10;0.82;;;0.80;;
65753;SDS011;52488;47.502;18.940;2023-01-10T02:42:06;1.33;;;0.88;;
65753;SDS011;52488;47.502;18.940;2023-01-10T02:43:13;0.82;;;0.82;;
65753;SDS011;52488;47.502;18.940;2023-01-10T02:44:22;0.90;;;0.73;;
65753;SDS011;52488;47.502;18.940;2023-01-10T02:45:44;0.93;;;0.90;;
65753;SDS011;52488;47.502;18.940;2023-01-10T02:46:49;0.88;;;0.88;;
65753;SDS011;52488;47.502;18.940;2023-01-10T02:47:53;0.90;;;0.90;;
65753;SDS011;52488;47.502;18.940;2023-01-10T02:48:57;0.90;;;0.73;;
65753;SDS011;52488;47.502;18.940;2023-01-10T02:51:36;1.40;;;1.08;;
65753;SDS011;52488;47.502;18.940;2023-01-10T02:52:39;1.27;;;0.90;;
65753;SDS011;52488;47.502;18.940;2023-01-10T02:53:43;0.73;;;0.73;;
65753;SDS011;52488;47.502;18.940;2023-01-10T02:54:57;0.73;;;0.73;;
65753;SDS011;52488;47.502;18.940;2023-01-10T02:59:41;1.12;;;1.00;;
65753;SDS011;52488;47.502;18.940;2023-01-10T03:00:54;3.75;;;0.68;;
65753;SDS011;52488;47.502;18.940;2023-01-10T03:02:13;1.52;;;0.90;;
65753;SDS011;52488;47.502;18.940;2023-01-10T03:06:15;0.70;;;0.70;;
65753;SDS011;52488;47.502;18.940;2023-01-10T03:07:14;0.70;;;0.62;;
65753;SDS011;52488;47.502;18.940;2023-01-10T03:11:02;1.10;;;0.85;;
65753;SDS011;52488;47.502;18.940;2023-01-10T03:12:11;0.98;;;0.82;;
65753;SDS011;52488;47.502;18.940;2023-01-10T03:14:31;1.30;;;0.88;;
65753;SDS011;52488;47.502;18.940;2023-01-10T03:15:39;0.70;;;0.70;;
65753;SDS011;52488;47.502;18.940;2023-01-10T03:17:00;1.20;;;0.77;;
65753;SDS011;52488;47.502;18.940;2023-01-10T03:18:08;1.23;;;0.85;;
65753;SDS011;52488;47.502;18.940;2023-01-10T03:19:16;0.90;;;0.60;;
65753;SDS011;52488;47.502;18.940;2023-01-10T03:20:23;0.60;;;0.60;;
65753;SDS011;52488;47.502;18.940;2023-01-10T03:21:29;0.65;;;0.65;;
65753;SDS011;52488;47.502;18.940;2023-01-10T03:22:34;0.70;;;0.70;;
65753;SDS011;52488;47.502;18.940;2023-01-10T03:23:41;0.98;;;0.70;;
65753;SDS011;52488;47.502;18.940;2023-01-10T03:24:47;0.85;;;0.70;;
65753;SDS011;52488;47.502;18.940;2023-01-10T03:25:51;0.85;;;0.60;;
65753;SDS011;52488;47.502;18.940;2023-01-10T03:27:12;3.80;;;0.80;;
65753;SDS011;52488;47.502;18.940;2023-01-10T03:28:25;0.50;;;0.50;;
65753;SDS011;52488;47.502;18.940;2023-01-10T03:29:39;1.25;;;0.60;;
65753;SDS011;52488;47.502;18.940;2023-01-10T03:31:01;0.60;;;0.60;;
65753;SDS011;52488;47.502;18.940;2023-01-10T03:32:10;0.77;;;0.77;;
65753;SDS011;52488;47.502;18.940;2023-01-10T03:33:17;1.08;;;0.70;;
65753;SDS011;52488;47.502;18.940;2023-01-10T03:34:26;1.05;;;0.65;;
65753;SDS011;52488;47.502;18.940;2023-01-10T03:39:05;0.62;;;0.60;;
65753;SDS011;52488;47.502;18.940;2023-01-10T03:41:20;1.33;;;0.70;;
65753;SDS011;52488;47.502;18.940;2023-01-10T03:42:47;0.70;;;0.70;;
65753;SDS011;52488;47.502;18.940;2023-01-10T03:44:57;0.57;;;0.57;;
65753;SDS011;52488;47.502;18.940;2023-01-10T03:46:59;1.45;;;0.77;;
65753;SDS011;52488;47.502;18.940;2023-01-10T03:47:48;0.60;;;0.60;;
65753;SDS011;52488;47.502;18.940;2023-01-10T03:48:55;1.65;;;0.70;;
65753;SDS011;52488;47.502;18.940;2023-01-10T03:50:05;0.50;;;0.50;;
65753;SDS011;52488;47.502;18.940;2023-01-10T03:51:12;0.70;;;0.70;;
65753;SDS011;52488;47.502;18.940;2023-01-10T03:52:17;0.70;;;0.70;;
65753;SDS011;52488;47.502;18.940;2023-01-10T03:53:22;0.93;;;0.65;;
65753;SDS011;52488;47.502;18.940;2023-01-10T03:54:25;0.95;;;0.65;;
65753;SDS011;52488;47.502;18.940;2023-01-10T03:55:28;0.60;;;0.60;;
65753;SDS011;52488;47.502;18.940;2023-01-10T03:56:42;3.03;;;0.88;;
65753;SDS011;52488;47.502;18.940;2023-01-10T03:57:49;0.52;;;0.50;;
65753;SDS011;52488;47.502;18.940;2023-01-10T03:58:52;0.60;;;0.60;;
65753;SDS011;52488;47.502;18.940;2023-01-10T04:00:01;0.70;;;0.65;;
65753;SDS011;52488;47.502;18.940;2023-01-10T04:01:06;0.68;;;0.60;;
65753;SDS011;52488;47.502;18.940;2023-01-10T04:02:09;1.65;;;0.80;;
65753;SDS011;52488;47.502;18.940;2023-01-10T04:03:13;0.60;;;0.60;;
65753;SDS011;52488;47.502;18.940;2023-01-10T04:04:17;0.75;;;0.68;;
65753;SDS011;52488;47.502;18.940;2023-01-10T04:05:20;0.65;;;0.60;;
65753;SDS011;52488;47.502;18.940;2023-01-10T04:06:23;1.12;;;0.68;;
65753;SDS011;52488;47.502;18.940;2023-01-10T04:07:26;0.85;;;0.70;;
65753;SDS011;52488;47.502;18.940;2023-01-10T04:08:30;0.70;;;0.70;;
65753;SDS011;52488;47.502;18.940;2023-01-10T04:09:39;0.60;;;0.60;;
65753;SDS011;52488;47.502;18.940;2023-01-10T04:10:42;2.05;;;0.60;;
65753;SDS011;52488;47.502;18.940;2023-01-10T04:11:45;0.98;;;0.80;;
65753;SDS011;52488;47.502;18.940;2023-01-10T04:12:48;2.00;;;0.77;;
65753;SDS011;52488;47.502;18.940;2023-01-10T04:13:51;0.98;;;0.90;;
65753;SDS011;52488;47.502;18.940;2023-01-10T04:14:54;0.90;;;0.65;;
65753;SDS011;52488;47.502;18.940;2023-01-10T04:15:58;0.65;;;0.65;;
65753;SDS011;52488;47.502;18.940;2023-01-10T04:17:02;0.73;;;0.60;;
65753;SDS011;52488;47.502;18.940;2023-01-10T04:18:05;1.17;;;0.60;;
65753;SDS011;52488;47.502;18.940;2023-01-10T04:19:08;0.70;;;0.60;;
65753;SDS011;52488;47.502;18.940;2023-01-10T04:20:12;1.20;;;0.70;;
65753;SDS011;52488;47.502;18.940;2023-01-10T04:21:15;0.85;;;0.70;;
65753;SDS011;52488;47.502;18.940;2023-01-10T04:22:18;0.80;;;0.80;;
65753;SDS011;52488;47.502;18.940;2023-01-10T04:23:21;0.57;;;0.57;;
65753;SDS011;52488;47.502;18.940;2023-01-10T04:24:24;1.08;;;0.73;;
65753;SDS011;52488;47.502;18.940;2023-01-10T04:25:27;3.25;;;0.93;;
65753;SDS011;52488;47.502;18.940;2023-01-10T04:26:30;0.60;;;0.60;;
65753;SDS011;52488;47.502;18.940;2023-01-10T04:27:33;0.55;;;0.55;;
65753;SDS011;52488;47.502;18.940;2023-01-10T04:28:36;0.50;;;0.50;;
65753;SDS011;52488;47.502;18.940;2023-01-10T04:29:39;0.98;;;0.60;;
65753;SDS011;52488;47.502;18.940;2023-01-10T04:30:42;0.90;;;0.68;;
65753;SDS011;52488;47.502;18.940;2023-01-10T04:31:45;0.60;;;0.60;;
65753;SDS011;52488;47.502;18.940;2023-01-10T04:32:48;0.75;;;0.70;;
65753;SDS011;52488;47.502;18.940;2023-01-10T04:33:51;0.90;;;0.50;;
65753;SDS011;52488;47.502;18.940;2023-01-10T04:34:54;0.60;;;0.60;;
65753;SDS011;52488;47.502;18.940;2023-01-10T04:35:57;1.12;;;0.70;;
65753;SDS011;52488;47.502;18.940;2023-01-10T04:37:00;0.75;;;0.73;;
65753;SDS011;52488;47.502;18.940;2023-01-10T04:38:03;1.02;;;0.68;;
65753;SDS011;52488;47.502;18.940;2023-01-10T04:39:06;0.50;;;0.50;;
65753;SDS011;52488;47.502;18.940;2023-01-10T04:40:10;0.75;;;0.60;;
65753;SDS011;52488;47.502;18.940;2023-01-10T04:41:14;0.50;;;0.40;;
65753;SDS011;52488;47.502;18.940;2023-01-10T04:42:17;0.82;;;0.55;;
65753;SDS011;52488;47.502;18.940;2023-01-10T04:43:21;0.40;;;0.40;;
65753;SDS011;52488;47.502;18.940;2023-01-10T04:44:26;0.50;;;0.50;;
65753;SDS011;52488;47.502;18.940;2023-01-10T04:45:29;1.67;;;0.47;;
65753;SDS011;52488;47.502;18.940;2023-01-10T04:46:32;0.50;;;0.50;;
65753;SDS011;52488;47.502;18.940;2023-01-10T04:47:36;0.30;;;0.30;;
65753;SDS011;52488;47.502;18.940;2023-01-10T04:48:39;0.43;;;0.43;;
65753;SDS011;52488;47.502;18.940;2023-01-10T04:49:42;0.50;;;0.40;;
65753;SDS011;52488;47.502;18.940;2023-01-10T04:50:49;0.60;;;0.50;;
65753;SDS011;52488;47.502;18.940;2023-01-10T04:51:52;0.40;;;0.40;;
65753;SDS011;52488;47.502;18.940;2023-01-10T04:52:55;1.45;;;0.60;;
65753;SDS011;52488;47.502;18.940;2023-01-10T04:53:58;0.57;;;0.47;;
65753;SDS011;52488;47.502;18.940;2023-01-10T04:55:01;0.40;;;0.40;;
65753;SDS011;52488;47.502;18.940;2023-01-10T04:56:05;1.00;;;0.68;;
65753;SDS011;52488;47.502;18.940;2023-01-10T04:57:12;0.77;;;0.55;;
65753;SDS011;52488;47.502;18.940;2023-01-10T04:58:15;0.50;;;0.50;;
65753;SDS011;52488;47.502;18.940;2023-01-10T04:59:18;1.52;;;0.40;;
65753;SDS011;52488;47.502;18.940;2023-01-10T05:00:22;0.50;;;0.50;;
65753;SDS011;52488;47.502;18.940;2023-01-10T05:01:25;0.52;;;0.50;;
65753;SDS011;52488;47.502;18.940;2023-01-10T05:02:29;0.47;;;0.45;;
65753;SDS011;52488;47.502;18.940;2023-01-10T05:03:32;0.82;;;0.55;;
65753;SDS011;52488;47.502;18.940;2023-01-10T05:04:35;0.40;;;0.40;;
65753;SDS011;52488;47.502;18.940;2023-01-10T05:05:38;0.40;;;0.40;;
65753;SDS011;52488;47.502;18.940;2023-01-10T05:06:41;0.52;;;0.32;;
65753;SDS011;52488;47.502;18.940;2023-01-10T05:07:45;0.25;;;0.25;;
65753;SDS011;52488;47.502;18.940;2023-01-10T05:08:48;0.70;;;0.32;;
65753;SDS011;52488;47.502;18.940;2023-01-10T05:09:51;0.30;;;0.30;;
65753;SDS011;52488;47.502;18.940;2023-01-10T05:10:54;0.60;;;0.47;;
65753;SDS011;52488;47.502;18.940;2023-01-10T05:11:58;0.40;;;0.40;;
65753;SDS011;52488;47.502;18.940;2023-01-10T05:13:00;0.30;;;0.30;;
65753;SDS011;52488;47.502;18.940;2023-01-10T05:14:03;0.37;;;0.37;;
65753;SDS011;52488;47.502;18.940;2023-01-10T05:15:07;0.45;;;0.45;;
65753;SDS011;52488;47.502;18.940;2023-01-10T05:16:10;0.37;;;0.37;;
65753;SDS011;52488;47.502;18.940;2023-01-10T05:17:13;1.45;;;0.40;;
65753;SDS011;52488;47.502;18.940;2023-01-10T05:18:16;0.47;;;0.47;;
65753;SDS011;52488;47.502;18.940;2023-01-10T05:19:19;0.28;;;0.28;;
65753;SDS011;52488;47.502;18.940;2023-01-10T05:20:22;0.40;;;0.40;;
65753;SDS011;52488;47.502;18.940;2023-01-10T05:21:25;0.30;;;0.30;;
65753;SDS011;52488;47.502;18.940;2023-01-10T05:22:28;0.30;;;0.30;;
65753;SDS011;52488;47.502;18.940;2023-01-10T05:23:31;0.22;;;0.22;;
65753;SDS011;52488;47.502;18.940;2023-01-10T05:24:34;0.37;;;0.37;;
65753;SDS011;52488;47.502;18.940;2023-01-10T05:25:37;0.20;;;0.20;;
65753;SDS011;52488;47.502;18.940;2023-01-10T05:26:40;0.62;;;0.50;;
65753;SDS011;52488;47.502;18.940;2023-01-10T05:27:43;0.90;;;0.50;;
65753;SDS011;52488;47.502;18.940;2023-01-10T05:28:45;0.40;;;0.40;;
65753;SDS011;52488;47.502;18.940;2023-01-10T05:29:48;0.60;;;0.50;;
65753;SDS011;52488;47.502;18.940;2023-01-10T05:30:51;0.85;;;0.30;;
65753;SDS011;52488;47.502;18.940;2023-01-10T05:31:55;0.50;;;0.50;;
65753;SDS011;52488;47.502;18.940;2023-01-10T05:32:58;0.43;;;0.43;;
65753;SDS011;52488;47.502;18.940;2023-01-10T05:34:01;0.45;;;0.43;;
65753;SDS011;52488;47.502;18.940;2023-01-10T05:35:05;0.68;;;0.52;;
65753;SDS011;52488;47.502;18.940;2023-01-10T05:36:08;0.52;;;0.40;;
65753;SDS011;52488;47.502;18.940;2023-01-10T05:37:10;0.47;;;0.20;;
65753;SDS011;52488;47.502;18.940;2023-01-10T05:38:15;0.40;;;0.37;;
65753;SDS011;52488;47.502;18.940;2023-01-10T05:39:18;0.30;;;0.30;;
65753;SDS011;52488;47.502;18.940;2023-01-10T05:40:23;0.47;;;0.30;;
65753;SDS011;52488;47.502;18.940;2023-01-10T05:41:26;0.40;;;0.30;;
65753;SDS011;52488;47.502;18.940;2023-01-10T05:42:29;0.20;;;0.20;;
65753;SDS011;52488;47.502;18.940;2023-01-10T05:43:32;0.70;;;0.50;;
65753;SDS011;52488;47.502;18.940;2023-01-10T05:44:35;0.37;;;0.32;;
65753;SDS011;52488;47.502;18.940;2023-01-10T05:45:38;1.02;;;0.28;;
65753;SDS011;52488;47.502;18.940;2023-01-10T05:46:41;0.62;;;0.30;;
65753;SDS011;52488;47.502;18.940;2023-01-10T05:47:44;0.50;;;0.43;;
65753;SDS011;52488;47.502;18.940;2023-01-10T05:48:47;0.90;;;0.70;;
65753;SDS011;52488;47.502;18.940;2023-01-10T05:49:50;0.40;;;0.40;;
65753;SDS011;52488;47.502;18.940;2023-01-10T05:50:53;0.75;;;0.60;;
65753;SDS011;52488;47.502;18.940;2023-01-10T05:51:56;0.90;;;0.45;;
65753;SDS011;52488;47.502;18.940;2023-01-10T05:52:59;1.20;;;0.50;;
65753;SDS011;52488;47.502;18.940;2023-01-10T05:54:07;0.60;;;0.60;;
65753;SDS011;52488;47.502;18.940;2023-01-10T05:55:10;0.40;;;0.40;;
65753;SDS011;52488;47.502;18.940;2023-01-10T05:56:13;0.50;;;0.50;;
65753;SDS011;52488;47.502;18.940;2023-01-10T05:57:16;0.60;;;0.47;;
65753;SDS011;52488;47.502;18.940;2023-01-10T05:58:20;0.40;;;0.40;;
65753;SDS011;52488;47.502;18.940;2023-01-10T05:59:23;1.35;;;0.30;;
65753;SDS011;52488;47.502;18.940;2023-01-10T06:00:29;0.45;;;0.37;;
65753;SDS011;52488;47.502;18.940;2023-01-10T06:01:32;0.30;;;0.30;;
65753;SDS011;52488;47.502;18.940;2023-01-10T06:02:35;0.30;;;0.30;;
65753;SDS011;52488;47.502;18.940;2023-01-10T06:03:40;0.70;;;0.30;;
65753;SDS011;52488;47.502;18.940;2023-01-10T06:04:43;0.20;;;0.20;;
65753;SDS011;52488;47.502;18.940;2023-01-10T06:05:46;0.70;;;0.40;;
65753;SDS011;52488;47.502;18.940;2023-01-10T06:06:50;0.30;;;0.30;;
65753;SDS011;52488;47.502;18.940;2023-01-10T06:07:53;0.70;;;0.40;;
65753;SDS011;52488;47.502;18.940;2023-01-10T06:08:56;0.32;;;0.32;;
65753;SDS011;52488;47.502;18.940;2023-01-10T06:10:00;0.22;;;0.22;;
65753;SDS011;52488;47.502;18.940;2023-01-10T06:11:05;0.30;;;0.30;;
65753;SDS011;52488;47.502;18.940;2023-01-10T06:12:09;0.75;;;0.57;;
65753;SDS011;52488;47.502;18.940;2023-01-10T06:13:12;0.65;;;0.37;;
65753;SDS011;52488;47.502;18.940;2023-01-10T06:14:14;0.52;;;0.40;;
65753;SDS011;52488;47.502;18.940;2023-01-10T06:15:20;0.45;;;0.30;;
65753;SDS011;52488;47.502;18.940;2023-01-10T06:16:28;0.98;;;0.30;;
65753;SDS011;52488;47.502;18.940;2023-01-10T06:17:30;0.95;;;0.40;;
65753;SDS011;52488;47.502;18.940;2023-01-10T06:18:34;0.37;;;0.32;;
65753;SDS011;52488;47.502;18.940;2023-01-10T06:19:37;0.60;;;0.40;;
65753;SDS011;52488;47.502;18.940;2023-01-10T06:20:40;0.55;;;0.55;;
65753;SDS011;52488;47.502;18.940;2023-01-10T06:21:44;0.73;;;0.50;;
65753;SDS011;52488;47.502;18.940;2023-01-10T06:22:51;0.35;;;0.35;;
65753;SDS011;52488;47.502;18.940;2023-01-10T06:23:54;0.70;;;0.55;;
65753;SDS011;52488;47.502;18.940;2023-01-10T06:24:57;0.52;;;0.40;;
65753;SDS011;52488;47.502;18.940;2023-01-10T06:26:03;0.57;;;0.40;;
65753;SDS011;52488;47.502;18.940;2023-01-10T06:27:07;0.37;;;0.35;;
65753;SDS011;52488;47.502;18.940;2023-01-10T06:28:10;0.35;;;0.35;;
65753;SDS011;52488;47.502;18.940;2023-01-10T06:29:14;1.33;;;0.40;;
65753;SDS011;52488;47.502;18.940;2023-01-10T06:30:17;0.98;;;0.60;;
65753;SDS011;52488;47.502;18.940;2023-01-10T06:31:20;1.17;;;0.47;;
65753;SDS011;52488;47.502;18.940;2023-01-10T06:32:23;0.47;;;0.47;;
65753;SDS011;52488;47.502;18.940;2023-01-10T06:33:27;0.52;;;0.35;;
65753;SDS011;52488;47.502;18.940;2023-01-10T06:34:30;0.43;;;0.30;;
65753;SDS011;52488;47.502;18.940;2023-01-10T06:35:33;0.45;;;0.40;;
65753;SDS011;52488;47.502;18.940;2023-01-10T06:36:37;0.30;;;0.30;;
65753;SDS011;52488;47.502;18.940;2023-01-10T06:37:39;0.80;;;0.30;;
65753;SDS011;52488;47.502;18.940;2023-01-10T06:38:42;0.30;;;0.30;;
65753;SDS011;52488;47.502;18.940;2023-01-10T06:39:46;0.28;;;0.28;;
65753;SDS011;52488;47.502;18.940;2023-01-10T06:40:49;0.43;;;0.40;;
65753;SDS011;52488;47.502;18.940;2023-01-10T06:41:52;0.52;;;0.40;;
65753;SDS011;52488;47.502;18.940;2023-01-10T06:42:55;0.30;;;0.30;;
65753;SDS011;52488;47.502;18.940;2023-01-10T06:43:58;0.30;;;0.30;;
65753;SDS011;52488;47.502;18.940;2023-01-10T06:45:01;0.43;;;0.40;;
65753;SDS011;52488;47.502;18.940;2023-01-10T06:46:06;0.40;;;0.40;;
65753;SDS011;52488;47.502;18.940;2023-01-10T06:47:11;0.68;;;0.30;;
65753;SDS011;52488;47.502;18.940;2023-01-10T06:48:14;0.20;;;0.20;;
65753;SDS011;52488;47.502;18.940;2023-01-10T06:49:20;0.62;;;0.57;;
65753;SDS011;52488;47.502;18.940;2023-01-10T06:50:23;0.40;;;0.40;;
65753;SDS011;52488;47.502;18.940;2023-01-10T06:51:26;0.30;;;0.30;;
65753;SDS011;52488;47.502;18.940;2023-01-10T06:52:29;0.50;;;0.50;;
65753;SDS011;52488;47.502;18.940;2023-01-10T06:53:32;0.35;;;0.30;;
65753;SDS011;52488;47.502;18.940;2023-01-10T06:54:35;0.30;;;0.30;;
65753;SDS011;52488;47.502;18.940;2023-01-10T06:55:38;0.52;;;0.40;;
65753;SDS011;52488;47.502;18.940;2023-01-10T06:56:41;2.47;;;0.40;;
65753;SDS011;52488;47.502;18.940;2023-01-10T06:57:44;0.85;;;0.50;;
65753;SDS011;52488;47.502;18.940;2023-01-10T06:58:48;0.68;;;0.52;;
65753;SDS011;52488;47.502;18.940;2023-01-10T06:59:51;0.43;;;0.40;;
65753;SDS011;52488;47.502;18.940;2023-01-10T07:00:54;0.40;;;0.40;;
65753;SDS011;52488;47.502;18.940;2023-01-10T07:01:57;0.35;;;0.30;;